sensor_id;sensor_type;location;lat;lon;timestamp;temperature;humidity
12746;DHT22;6437;53.686;10.030;2022-08-01T00:02:07;19.00;99.90
12746;DHT22;6437;53.686;10.030;2022-08-01T00:05:10;18.90;99.90
12746;DHT22;6437;53.686;10.030;2022-08-01T00:08:12;18.90;99.90
12746;DHT22;6437;53.686;10.030;2022-08-01T00:11:13;18.90;99.90
12746;DHT22;6437;53.686;10.030;2022-08-01T00:14:15;18.90;99.90
12746;DHT22;6437;53.686;10.030;2022-08-01T00:17:17;19.00;99.90
12746;DHT22;6437;53.686;10.030;2022-08-01T00:20:20;19.00;99.90
12746;DHT22;6437;53.686;10.030;2022-08-01T00:23:21;18.90;99.90
12746;DHT22;6437;53.686;10.030;2022-08-01T00:26:23;18.90;99.90
12746;DHT22;6437;53.686;10.030;2022-08-01T00:29:24;18.90;99.90
12746;DHT22;6437;53.686;10.030;2022-08-01T00:32:27;18.90;99.90
12746;DHT22;6437;53.686;10.030;2022-08-01T00:35:32;18.90;99.90
12746;DHT22;6437;53.686;10.030;2022-08-01T00:38:34;18.90;99.90
12746;DHT22;6437;53.686;10.030;2022-08-01T00:41:35;18.90;99.90
12746;DHT22;6437;53.686;10.030;2022-08-01T00:44:37;18.90;99.90
12746;DHT22;6437;53.686;10.030;2022-08-01T00:47:39;18.90;99.90
12746;DHT22;6437;53.686;10.030;2022-08-01T00:50:42;18.90;99.90
12746;DHT22;6437;53.686;10.030;2022-08-01T00:53:44;18.90;99.90
12746;DHT22;6437;53.686;10.030;2022-08-01T00:56:46;18.90;99.90
12746;DHT22;6437;53.686;10.030;2022-08-01T00:59:47;18.90;99.90
12746;DHT22;6437;53.686;10.030;2022-08-01T01:02:49;18.90;99.90
12746;DHT22;6437;53.686;10.030;2022-08-01T01:05:54;18.90;99.90
12746;DHT22;6437;53.686;10.030;2022-08-01T01:09:17;18.90;99.90
12746;DHT22;6437;53.686;10.030;2022-08-01T01:12:21;19.00;99.90
12746;DHT22;6437;53.686;10.030;2022-08-01T01:15:26;19.00;99.90
12746;DHT22;6437;53.686;10.030;2022-08-01T01:18:32;18.90;99.90
12746;DHT22;6437;53.686;10.030;2022-08-01T01:21:49;18.90;99.90
12746;DHT22;6437;53.686;10.030;2022-08-01T01:24:58;18.90;99.90
12746;DHT22;6437;53.686;10.030;2022-08-01T01:28:05;18.90;99.90
12746;DHT22;6437;53.686;10.030;2022-08-01T01:31:11;18.90;99.90
12746;DHT22;6437;53.686;10.030;2022-08-01T01:34:14;18.90;99.90
12746;DHT22;6437;53.686;10.030;2022-08-01T01:37:17;18.90;99.90
12746;DHT22;6437;53.686;10.030;2022-08-01T01:40:19;18.90;99.90
12746;DHT22;6437;53.686;10.030;2022-08-01T01:43:21;18.80;99.90
12746;DHT22;6437;53.686;10.030;2022-08-01T01:46:25;18.90;99.90
12746;DHT22;6437;53.686;10.030;2022-08-01T01:49:28;18.80;99.90
12746;DHT22;6437;53.686;10.030;2022-08-01T01:52:30;18.80;99.90
12746;DHT22;6437;53.686;10.030;2022-08-01T01:55:33;18.80;99.90
12746;DHT22;6437;53.686;10.030;2022-08-01T01:58:36;18.80;99.90
12746;DHT22;6437;53.686;10.030;2022-08-01T02:01:40;18.80;99.90
12746;DHT22;6437;53.686;10.030;2022-08-01T02:04:43;18.80;99.90
12746;DHT22;6437;53.686;10.030;2022-08-01T02:07:45;18.80;99.90
12746;DHT22;6437;53.686;10.030;2022-08-01T02:10:47;18.80;99.90
12746;DHT22;6437;53.686;10.030;2022-08-01T02:14:03;18.80;99.90
12746;DHT22;6437;53.686;10.030;2022-08-01T02:17:06;18.80;99.90
12746;DHT22;6437;53.686;10.030;2022-08-01T02:20:10;18.80;99.90
12746;DHT22;6437;53.686;10.030;2022-08-01T02:23:12;18.70;99.90
12746;DHT22;6437;53.686;10.030;2022-08-01T02:26:14;18.70;99.90
12746;DHT22;6437;53.686;10.030;2022-08-01T02:29:18;18.70;99.90
12746;DHT22;6437;53.686;10.030;2022-08-01T02:32:25;18.70;99.90
12746;DHT22;6437;53.686;10.030;2022-08-01T02:35:28;18.70;99.90
12746;DHT22;6437;53.686;10.030;2022-08-01T02:38:31;18.70;99.90
12746;DHT22;6437;53.686;10.030;2022-08-01T02:41:34;18.70;99.90
12746;DHT22;6437;53.686;10.030;2022-08-01T02:44:38;18.70;99.90
12746;DHT22;6437;53.686;10.030;2022-08-01T02:47:42;18.70;99.90
12746;DHT22;6437;53.686;10.030;2022-08-01T02:50:46;18.70;99.90
12746;DHT22;6437;53.686;10.030;2022-08-01T02:53:48;18.70;99.90
12746;DHT22;6437;53.686;10.030;2022-08-01T02:56:51;18.70;99.90
12746;DHT22;6437;53.686;10.030;2022-08-01T02:59:54;18.70;99.90
12746;DHT22;6437;53.686;10.030;2022-08-01T03:02:58;18.70;99.90
12746;DHT22;6437;53.686;10.030;2022-08-01T03:06:01;18.70;99.90
12746;DHT22;6437;53.686;10.030;2022-08-01T03:09:03;18.70;99.90
12746;DHT22;6437;53.686;10.030;2022-08-01T03:12:06;18.70;99.90
12746;DHT22;6437;53.686;10.030;2022-08-01T03:15:09;18.70;99.90
12746;DHT22;6437;53.686;10.030;2022-08-01T03:18:13;18.70;99.90
12746;DHT22;6437;53.686;10.030;2022-08-01T03:21:15;18.70;99.90
12746;DHT22;6437;53.686;10.030;2022-08-01T03:24:18;18.80;99.90
12746;DHT22;6437;53.686;10.030;2022-08-01T03:27:21;18.70;99.90
12746;DHT22;6437;53.686;10.030;2022-08-01T03:30:25;18.80;99.90
12746;DHT22;6437;53.686;10.030;2022-08-01T03:33:28;18.70;99.90
12746;DHT22;6437;53.686;10.030;2022-08-01T03:36:31;18.70;99.90
12746;DHT22;6437;53.686;10.030;2022-08-01T03:39:34;18.60;99.90
12746;DHT22;6437;53.686;10.030;2022-08-01T03:42:39;18.60;99.90
12746;DHT22;6437;53.686;10.030;2022-08-01T03:45:45;18.60;99.90
12746;DHT22;6437;53.686;10.030;2022-08-01T03:48:48;18.60;99.90
12746;DHT22;6437;53.686;10.030;2022-08-01T03:51:52;18.60;99.90
12746;DHT22;6437;53.686;10.030;2022-08-01T03:54:54;18.60;99.90
12746;DHT22;6437;53.686;10.030;2022-08-01T03:57:56;18.60;99.90
12746;DHT22;6437;53.686;10.030;2022-08-01T04:00:59;18.60;99.90
12746;DHT22;6437;53.686;10.030;2022-08-01T04:04:03;18.60;99.90
12746;DHT22;6437;53.686;10.030;2022-08-01T04:07:19;18.60;99.90
12746;DHT22;6437;53.686;10.030;2022-08-01T04:10:22;18.60;99.90
12746;DHT22;6437;53.686;10.030;2022-08-01T04:13:24;18.60;99.90
12746;DHT22;6437;53.686;10.030;2022-08-01T04:16:26;18.60;99.90
12746;DHT22;6437;53.686;10.030;2022-08-01T04:19:29;18.60;99.90
12746;DHT22;6437;53.686;10.030;2022-08-01T04:22:30;18.60;99.90
12746;DHT22;6437;53.686;10.030;2022-08-01T04:25:33;18.60;99.90
12746;DHT22;6437;53.686;10.030;2022-08-01T04:28:36;18.60;99.90
12746;DHT22;6437;53.686;10.030;2022-08-01T04:31:39;18.60;99.90
12746;DHT22;6437;53.686;10.030;2022-08-01T04:34:44;18.60;99.90
12746;DHT22;6437;53.686;10.030;2022-08-01T04:37:47;18.60;99.90
12746;DHT22;6437;53.686;10.030;2022-08-01T04:40:51;18.60;99.90
12746;DHT22;6437;53.686;10.030;2022-08-01T04:43:53;18.60;99.90
12746;DHT22;6437;53.686;10.030;2022-08-01T04:46:55;18.60;99.90
12746;DHT22;6437;53.686;10.030;2022-08-01T04:49:58;18.60;99.90
12746;DHT22;6437;53.686;10.030;2022-08-01T04:53:00;18.60;99.90
12746;DHT22;6437;53.686;10.030;2022-08-01T04:56:03;18.60;99.90
12746;DHT22;6437;53.686;10.030;2022-08-01T04:59:06;18.60;99.90
12746;DHT22;6437;53.686;10.030;2022-08-01T05:02:25;18.60;99.90
12746;DHT22;6437;53.686;10.030;2022-08-01T05:05:29;18.60;99.90
12746;DHT22;6437;53.686;10.030;2022-08-01T05:08:32;18.50;99.90
12746;DHT22;6437;53.686;10.030;2022-08-01T05:11:33;18.60;99.90
12746;DHT22;6437;53.686;10.030;2022-08-01T05:14:35;18.50;99.90
12746;DHT22;6437;53.686;10.030;2022-08-01T05:17:37;18.50;99.90
12746;DHT22;6437;53.686;10.030;2022-08-01T05:20:40;18.50;99.90
12746;DHT22;6437;53.686;10.030;2022-08-01T05:23:41;18.50;99.90
12746;DHT22;6437;53.686;10.030;2022-08-01T05:26:43;18.50;99.90
12746;DHT22;6437;53.686;10.030;2022-08-01T05:29:44;18.50;99.90
12746;DHT22;6437;53.686;10.030;2022-08-01T05:32:46;18.50;99.90
12746;DHT22;6437;53.686;10.030;2022-08-01T05:35:49;18.50;99.90
12746;DHT22;6437;53.686;10.030;2022-08-01T05:38:51;18.50;99.90
12746;DHT22;6437;53.686;10.030;2022-08-01T05:41:52;18.50;99.90
12746;DHT22;6437;53.686;10.030;2022-08-01T05:44:54;18.50;99.90
12746;DHT22;6437;53.686;10.030;2022-08-01T05:47:55;18.60;99.90
12746;DHT22;6437;53.686;10.030;2022-08-01T05:50:58;18.50;99.90
12746;DHT22;6437;53.686;10.030;2022-08-01T05:54:00;18.40;99.90
12746;DHT22;6437;53.686;10.030;2022-08-01T05:57:03;18.40;99.90
12746;DHT22;6437;53.686;10.030;2022-08-01T06:00:05;18.40;99.90
12746;DHT22;6437;53.686;10.030;2022-08-01T06:03:07;18.40;99.90
12746;DHT22;6437;53.686;10.030;2022-08-01T06:06:10;18.40;99.90
12746;DHT22;6437;53.686;10.030;2022-08-01T06:09:11;18.40;99.90
12746;DHT22;6437;53.686;10.030;2022-08-01T06:12:13;18.40;99.90
12746;DHT22;6437;53.686;10.030;2022-08-01T06:15:15;18.40;99.90
12746;DHT22;6437;53.686;10.030;2022-08-01T06:18:16;18.40;99.90
12746;DHT22;6437;53.686;10.030;2022-08-01T06:21:19;18.40;99.90
12746;DHT22;6437;53.686;10.030;2022-08-01T06:24:21;18.40;99.90
12746;DHT22;6437;53.686;10.030;2022-08-01T06:27:23;18.40;99.90
12746;DHT22;6437;53.686;10.030;2022-08-01T06:30:26;18.40;99.90
12746;DHT22;6437;53.686;10.030;2022-08-01T06:33:28;18.50;99.90
12746;DHT22;6437;53.686;10.030;2022-08-01T06:36:30;18.50;99.90
12746;DHT22;6437;53.686;10.030;2022-08-01T06:39:32;18.50;99.90
12746;DHT22;6437;53.686;10.030;2022-08-01T06:42:34;18.50;99.90
12746;DHT22;6437;53.686;10.030;2022-08-01T06:45:36;18.50;99.90
12746;DHT22;6437;53.686;10.030;2022-08-01T06:48:38;18.50;99.90
12746;DHT22;6437;53.686;10.030;2022-08-01T06:51:41;18.50;99.90
12746;DHT22;6437;53.686;10.030;2022-08-01T06:54:43;18.50;99.90
12746;DHT22;6437;53.686;10.030;2022-08-01T06:57:45;18.50;99.90
12746;DHT22;6437;53.686;10.030;2022-08-01T07:00:47;18.50;99.90
12746;DHT22;6437;53.686;10.030;2022-08-01T07:03:48;18.50;99.90
12746;DHT22;6437;53.686;10.030;2022-08-01T07:06:51;18.50;99.90
12746;DHT22;6437;53.686;10.030;2022-08-01T07:09:53;18.50;99.90
12746;DHT22;6437;53.686;10.030;2022-08-01T07:12:55;18.40;99.90
12746;DHT22;6437;53.686;10.030;2022-08-01T07:15:56;18.40;99.90
12746;DHT22;6437;53.686;10.030;2022-08-01T07:18:58;18.30;99.90
12746;DHT22;6437;53.686;10.030;2022-08-01T07:22:01;18.30;99.90
12746;DHT22;6437;53.686;10.030;2022-08-01T07:25:03;18.30;99.90
12746;DHT22;6437;53.686;10.030;2022-08-01T07:28:04;18.30;99.90
12746;DHT22;6437;53.686;10.030;2022-08-01T07:31:06;18.30;99.90
12746;DHT22;6437;53.686;10.030;2022-08-01T07:34:08;18.30;99.90
12746;DHT22;6437;53.686;10.030;2022-08-01T07:37:11;18.30;99.90
12746;DHT22;6437;53.686;10.030;2022-08-01T07:40:12;18.30;99.90
12746;DHT22;6437;53.686;10.030;2022-08-01T07:43:14;18.30;99.90
12746;DHT22;6437;53.686;10.030;2022-08-01T07:46:16;18.30;99.90
12746;DHT22;6437;53.686;10.030;2022-08-01T07:49:17;18.30;99.90
12746;DHT22;6437;53.686;10.030;2022-08-01T07:52:20;18.30;99.90
12746;DHT22;6437;53.686;10.030;2022-08-01T07:55:22;18.30;99.90
12746;DHT22;6437;53.686;10.030;2022-08-01T07:58:24;18.30;99.90
12746;DHT22;6437;53.686;10.030;2022-08-01T08:01:25;18.30;99.90
12746;DHT22;6437;53.686;10.030;2022-08-01T08:04:27;18.40;99.90
12746;DHT22;6437;53.686;10.030;2022-08-01T08:07:30;18.50;99.90
12746;DHT22;6437;53.686;10.030;2022-08-01T08:10:32;18.50;99.90
12746;DHT22;6437;53.686;10.030;2022-08-01T08:13:34;18.50;99.90
12746;DHT22;6437;53.686;10.030;2022-08-01T08:16:35;18.40;99.90
12746;DHT22;6437;53.686;10.030;2022-08-01T08:19:37;18.30;99.90
12746;DHT22;6437;53.686;10.030;2022-08-01T08:22:41;18.30;99.90
12746;DHT22;6437;53.686;10.030;2022-08-01T08:25:42;18.30;99.90
12746;DHT22;6437;53.686;10.030;2022-08-01T08:28:44;18.20;99.90
12746;DHT22;6437;53.686;10.030;2022-08-01T08:31:46;18.20;99.90
12746;DHT22;6437;53.686;10.030;2022-08-01T08:34:48;18.20;99.90
12746;DHT22;6437;53.686;10.030;2022-08-01T08:37:51;18.20;99.90
12746;DHT22;6437;53.686;10.030;2022-08-01T08:40:53;18.20;99.90
12746;DHT22;6437;53.686;10.030;2022-08-01T08:43:54;18.20;99.90
12746;DHT22;6437;53.686;10.030;2022-08-01T08:46:58;18.10;99.90
12746;DHT22;6437;53.686;10.030;2022-08-01T08:50:02;18.20;99.90
12746;DHT22;6437;53.686;10.030;2022-08-01T08:53:05;18.20;99.90
12746;DHT22;6437;53.686;10.030;2022-08-01T08:56:07;18.30;99.90
12746;DHT22;6437;53.686;10.030;2022-08-01T08:59:10;18.30;99.90
12746;DHT22;6437;53.686;10.030;2022-08-01T09:02:13;18.40;99.90
12746;DHT22;6437;53.686;10.030;2022-08-01T09:05:15;18.40;99.90
12746;DHT22;6437;53.686;10.030;2022-08-01T09:08:20;18.50;99.90
12746;DHT22;6437;53.686;10.030;2022-08-01T09:11:22;18.60;99.90
12746;DHT22;6437;53.686;10.030;2022-08-01T09:14:24;18.70;99.90
12746;DHT22;6437;53.686;10.030;2022-08-01T09:17:27;18.70;99.90
12746;DHT22;6437;53.686;10.030;2022-08-01T09:20:29;18.70;99.90
12746;DHT22;6437;53.686;10.030;2022-08-01T09:23:32;18.70;99.90
12746;DHT22;6437;53.686;10.030;2022-08-01T09:26:34;18.80;99.90
12746;DHT22;6437;53.686;10.030;2022-08-01T09:29:36;18.90;99.90
12746;DHT22;6437;53.686;10.030;2022-08-01T09:32:52;18.90;99.90
12746;DHT22;6437;53.686;10.030;2022-08-01T09:35:55;19.00;99.90
12746;DHT22;6437;53.686;10.030;2022-08-01T09:38:59;19.10;99.90
12746;DHT22;6437;53.686;10.030;2022-08-01T09:42:19;19.20;99.90
12746;DHT22;6437;53.686;10.030;2022-08-01T09:45:31;19.30;99.90
12746;DHT22;6437;53.686;10.030;2022-08-01T09:48:32;19.30;99.90
12746;DHT22;6437;53.686;10.030;2022-08-01T09:51:35;19.30;99.90
12746;DHT22;6437;53.686;10.030;2022-08-01T09:54:39;19.30;99.90
12746;DHT22;6437;53.686;10.030;2022-08-01T09:57:40;19.40;99.90
12746;DHT22;6437;53.686;10.030;2022-08-01T10:00:58;19.50;99.90
12746;DHT22;6437;53.686;10.030;2022-08-01T10:04:07;19.50;99.90
12746;DHT22;6437;53.686;10.030;2022-08-01T10:07:09;19.60;99.90
12746;DHT22;6437;53.686;10.030;2022-08-01T10:10:12;19.70;99.90
12746;DHT22;6437;53.686;10.030;2022-08-01T10:13:14;19.80;99.90
12746;DHT22;6437;53.686;10.030;2022-08-01T10:16:16;19.80;99.90
12746;DHT22;6437;53.686;10.030;2022-08-01T10:19:18;19.80;99.90
12746;DHT22;6437;53.686;10.030;2022-08-01T10:22:23;19.90;99.90
12746;DHT22;6437;53.686;10.030;2022-08-01T10:25:28;19.90;99.90
12746;DHT22;6437;53.686;10.030;2022-08-01T10:28:30;20.00;99.90
12746;DHT22;6437;53.686;10.030;2022-08-01T10:31:32;20.00;99.90
12746;DHT22;6437;53.686;10.030;2022-08-01T10:34:34;20.10;99.90
12746;DHT22;6437;53.686;10.030;2022-08-01T10:37:36;20.10;99.90
12746;DHT22;6437;53.686;10.030;2022-08-01T10:40:39;20.20;99.90
12746;DHT22;6437;53.686;10.030;2022-08-01T10:43:40;20.30;99.90
12746;DHT22;6437;53.686;10.030;2022-08-01T10:46:44;20.30;99.90
12746;DHT22;6437;53.686;10.030;2022-08-01T10:49:49;20.40;99.90
12746;DHT22;6437;53.686;10.030;2022-08-01T10:53:12;20.40;99.90
12746;DHT22;6437;53.686;10.030;2022-08-01T10:56:15;20.50;99.90
12746;DHT22;6437;53.686;10.030;2022-08-01T10:59:20;20.60;99.90
12746;DHT22;6437;53.686;10.030;2022-08-01T11:02:26;20.60;99.90
12746;DHT22;6437;53.686;10.030;2022-08-01T11:05:30;20.60;99.90
12746;DHT22;6437;53.686;10.030;2022-08-01T11:08:33;20.70;99.90
12746;DHT22;6437;53.686;10.030;2022-08-01T11:11:56;20.80;99.90
12746;DHT22;6437;53.686;10.030;2022-08-01T11:18:32;20.80;99.90
12746;DHT22;6437;53.686;10.030;2022-08-01T11:24:54;20.90;99.90
12746;DHT22;6437;53.686;10.030;2022-08-01T11:28:13;21.00;99.90
12746;DHT22;6437;53.686;10.030;2022-08-01T11:31:28;21.00;99.90
12746;DHT22;6437;53.686;10.030;2022-08-01T11:37:46;21.10;99.90
12746;DHT22;6437;53.686;10.030;2022-08-01T11:40:47;21.20;99.90
12746;DHT22;6437;53.686;10.030;2022-08-01T11:44:11;21.20;99.90
12746;DHT22;6437;53.686;10.030;2022-08-01T11:47:13;21.30;99.90
12746;DHT22;6437;53.686;10.030;2022-08-01T11:53:45;21.50;99.90
12746;DHT22;6437;53.686;10.030;2022-08-01T11:56:46;21.50;99.90
12746;DHT22;6437;53.686;10.030;2022-08-01T11:59:50;21.50;99.90
12746;DHT22;6437;53.686;10.030;2022-08-01T12:02:56;21.60;99.90
12746;DHT22;6437;53.686;10.030;2022-08-01T12:05:58;21.70;99.90
12746;DHT22;6437;53.686;10.030;2022-08-01T12:09:14;21.80;99.90
12746;DHT22;6437;53.686;10.030;2022-08-01T12:12:16;21.80;99.90
12746;DHT22;6437;53.686;10.030;2022-08-01T12:15:22;21.80;99.90
12746;DHT22;6437;53.686;10.030;2022-08-01T12:18:24;21.70;99.90
12746;DHT22;6437;53.686;10.030;2022-08-01T12:21:27;21.70;99.90
12746;DHT22;6437;53.686;10.030;2022-08-01T12:24:28;21.80;99.90
12746;DHT22;6437;53.686;10.030;2022-08-01T12:27:30;21.80;99.90
12746;DHT22;6437;53.686;10.030;2022-08-01T12:30:33;21.90;99.90
12746;DHT22;6437;53.686;10.030;2022-08-01T12:33:35;22.00;99.90
12746;DHT22;6437;53.686;10.030;2022-08-01T12:36:37;22.00;99.90
12746;DHT22;6437;53.686;10.030;2022-08-01T12:39:39;22.00;99.90
12746;DHT22;6437;53.686;10.030;2022-08-01T12:42:42;22.10;99.90
12746;DHT22;6437;53.686;10.030;2022-08-01T12:45:46;22.20;99.90
12746;DHT22;6437;53.686;10.030;2022-08-01T12:48:48;22.20;99.90
12746;DHT22;6437;53.686;10.030;2022-08-01T12:51:50;22.20;99.90
12746;DHT22;6437;53.686;10.030;2022-08-01T12:55:08;22.20;99.90
12746;DHT22;6437;53.686;10.030;2022-08-01T12:58:11;22.20;99.90
12746;DHT22;6437;53.686;10.030;2022-08-01T13:01:14;22.20;99.90
12746;DHT22;6437;53.686;10.030;2022-08-01T13:04:16;22.10;99.90
12746;DHT22;6437;53.686;10.030;2022-08-01T13:07:18;22.20;99.90
12746;DHT22;6437;53.686;10.030;2022-08-01T13:10:27;22.20;99.90
12746;DHT22;6437;53.686;10.030;2022-08-01T13:13:37;22.10;99.90
12746;DHT22;6437;53.686;10.030;2022-08-01T13:16:46;22.10;99.90
12746;DHT22;6437;53.686;10.030;2022-08-01T13:19:48;22.00;99.90
12746;DHT22;6437;53.686;10.030;2022-08-01T13:22:52;21.90;99.90
12746;DHT22;6437;53.686;10.030;2022-08-01T13:25:54;21.90;99.90
12746;DHT22;6437;53.686;10.030;2022-08-01T13:29:03;21.90;99.90
12746;DHT22;6437;53.686;10.030;2022-08-01T13:32:13;21.90;99.90
12746;DHT22;6437;53.686;10.030;2022-08-01T13:35:15;21.90;99.90
12746;DHT22;6437;53.686;10.030;2022-08-01T13:38:21;21.90;99.90
12746;DHT22;6437;53.686;10.030;2022-08-01T13:41:44;21.80;99.90
12746;DHT22;6437;53.686;10.030;2022-08-01T13:44:46;21.80;99.90
12746;DHT22;6437;53.686;10.030;2022-08-01T13:47:49;21.80;99.90
12746;DHT22;6437;53.686;10.030;2022-08-01T13:50:50;21.80;99.90
12746;DHT22;6437;53.686;10.030;2022-08-01T13:53:52;21.80;99.90
12746;DHT22;6437;53.686;10.030;2022-08-01T13:56:54;21.80;99.90
12746;DHT22;6437;53.686;10.030;2022-08-01T13:59:55;21.80;99.90
12746;DHT22;6437;53.686;10.030;2022-08-01T14:03:01;21.70;99.90
12746;DHT22;6437;53.686;10.030;2022-08-01T14:06:03;21.70;99.90
12746;DHT22;6437;53.686;10.030;2022-08-01T14:09:04;21.70;99.90
12746;DHT22;6437;53.686;10.030;2022-08-01T14:12:06;21.80;99.90
12746;DHT22;6437;53.686;10.030;2022-08-01T14:15:08;21.80;99.90
12746;DHT22;6437;53.686;10.030;2022-08-01T14:18:11;21.80;99.90
12746;DHT22;6437;53.686;10.030;2022-08-01T14:21:13;21.80;99.90
12746;DHT22;6437;53.686;10.030;2022-08-01T14:24:15;21.70;99.90
12746;DHT22;6437;53.686;10.030;2022-08-01T14:27:17;21.80;99.90
12746;DHT22;6437;53.686;10.030;2022-08-01T14:30:18;21.90;99.90
12746;DHT22;6437;53.686;10.030;2022-08-01T14:33:21;21.90;99.90
12746;DHT22;6437;53.686;10.030;2022-08-01T14:36:23;22.00;99.90
12746;DHT22;6437;53.686;10.030;2022-08-01T14:39:24;22.00;99.90
12746;DHT22;6437;53.686;10.030;2022-08-01T14:42:26;22.10;99.90
12746;DHT22;6437;53.686;10.030;2022-08-01T14:45:28;22.10;99.90
12746;DHT22;6437;53.686;10.030;2022-08-01T14:48:31;22.20;99.90
12746;DHT22;6437;53.686;10.030;2022-08-01T14:51:32;22.20;99.90
12746;DHT22;6437;53.686;10.030;2022-08-01T14:54:35;22.30;99.90
12746;DHT22;6437;53.686;10.030;2022-08-01T14:57:37;22.30;99.90
12746;DHT22;6437;53.686;10.030;2022-08-01T15:00:39;22.30;99.90
12746;DHT22;6437;53.686;10.030;2022-08-01T15:03:42;22.30;99.90
12746;DHT22;6437;53.686;10.030;2022-08-01T15:06:44;22.30;99.90
12746;DHT22;6437;53.686;10.030;2022-08-01T15:09:45;22.30;99.90
12746;DHT22;6437;53.686;10.030;2022-08-01T15:12:47;22.30;99.90
12746;DHT22;6437;53.686;10.030;2022-08-01T15:15:49;22.30;99.90
12746;DHT22;6437;53.686;10.030;2022-08-01T15:18:52;22.20;99.90
12746;DHT22;6437;53.686;10.030;2022-08-01T15:21:53;22.30;99.90
12746;DHT22;6437;53.686;10.030;2022-08-01T15:24:56;22.20;99.90
12746;DHT22;6437;53.686;10.030;2022-08-01T15:27:57;22.00;99.90
12746;DHT22;6437;53.686;10.030;2022-08-01T15:30:59;21.90;99.90
12746;DHT22;6437;53.686;10.030;2022-08-01T15:34:02;21.90;99.90
12746;DHT22;6437;53.686;10.030;2022-08-01T15:37:04;21.80;99.90
12746;DHT22;6437;53.686;10.030;2022-08-01T15:40:06;21.70;99.90
12746;DHT22;6437;53.686;10.030;2022-08-01T15:43:08;21.70;99.90
12746;DHT22;6437;53.686;10.030;2022-08-01T15:46:10;21.60;99.90
12746;DHT22;6437;53.686;10.030;2022-08-01T15:49:13;21.50;99.90
12746;DHT22;6437;53.686;10.030;2022-08-01T15:52:15;21.40;99.90
12746;DHT22;6437;53.686;10.030;2022-08-01T15:55:17;21.30;99.90
12746;DHT22;6437;53.686;10.030;2022-08-01T15:58:18;21.20;99.90
12746;DHT22;6437;53.686;10.030;2022-08-01T16:01:20;21.20;99.90
12746;DHT22;6437;53.686;10.030;2022-08-01T16:04:23;21.10;99.90
12746;DHT22;6437;53.686;10.030;2022-08-01T16:07:25;21.20;99.90
12746;DHT22;6437;53.686;10.030;2022-08-01T16:10:27;21.10;99.90
12746;DHT22;6437;53.686;10.030;2022-08-01T16:13:28;21.10;99.90
12746;DHT22;6437;53.686;10.030;2022-08-01T16:16:30;21.00;99.90
12746;DHT22;6437;53.686;10.030;2022-08-01T16:19:33;21.00;99.90
12746;DHT22;6437;53.686;10.030;2022-08-01T16:22:35;21.00;99.90
12746;DHT22;6437;53.686;10.030;2022-08-01T16:25:36;21.00;99.90
12746;DHT22;6437;53.686;10.030;2022-08-01T16:28:38;21.00;99.90
12746;DHT22;6437;53.686;10.030;2022-08-01T16:31:40;20.90;99.90
12746;DHT22;6437;53.686;10.030;2022-08-01T16:34:43;20.90;99.90
12746;DHT22;6437;53.686;10.030;2022-08-01T16:37:44;20.80;99.90
12746;DHT22;6437;53.686;10.030;2022-08-01T16:40:46;20.80;99.90
12746;DHT22;6437;53.686;10.030;2022-08-01T16:43:48;20.80;99.90
12746;DHT22;6437;53.686;10.030;2022-08-01T16:46:50;20.70;99.90
12746;DHT22;6437;53.686;10.030;2022-08-01T16:49:53;20.70;99.90
12746;DHT22;6437;53.686;10.030;2022-08-01T16:52:55;20.70;99.90
12746;DHT22;6437;53.686;10.030;2022-08-01T16:55:57;20.60;99.90
12746;DHT22;6437;53.686;10.030;2022-08-01T16:58:58;20.60;99.90
12746;DHT22;6437;53.686;10.030;2022-08-01T17:02:00;20.50;99.90
12746;DHT22;6437;53.686;10.030;2022-08-01T17:05:04;20.40;99.90
12746;DHT22;6437;53.686;10.030;2022-08-01T17:08:06;20.40;99.90
12746;DHT22;6437;53.686;10.030;2022-08-01T17:11:08;20.30;99.90
12746;DHT22;6437;53.686;10.030;2022-08-01T17:14:10;20.20;99.90
12746;DHT22;6437;53.686;10.030;2022-08-01T17:17:11;20.10;99.90
12746;DHT22;6437;53.686;10.030;2022-08-01T17:20:14;20.10;99.90
12746;DHT22;6437;53.686;10.030;2022-08-01T17:23:16;20.00;99.90
12746;DHT22;6437;53.686;10.030;2022-08-01T17:26:18;20.00;99.90
12746;DHT22;6437;53.686;10.030;2022-08-01T17:29:19;20.00;99.90
12746;DHT22;6437;53.686;10.030;2022-08-01T17:32:21;20.00;99.90
12746;DHT22;6437;53.686;10.030;2022-08-01T17:35:24;19.90;99.90
12746;DHT22;6437;53.686;10.030;2022-08-01T17:38:26;19.80;99.90
12746;DHT22;6437;53.686;10.030;2022-08-01T17:41:27;19.70;99.90
12746;DHT22;6437;53.686;10.030;2022-08-01T17:44:29;19.70;99.90
12746;DHT22;6437;53.686;10.030;2022-08-01T17:47:30;19.60;99.90
12746;DHT22;6437;53.686;10.030;2022-08-01T17:50:33;19.60;99.90
12746;DHT22;6437;53.686;10.030;2022-08-01T17:53:35;19.60;99.90
12746;DHT22;6437;53.686;10.030;2022-08-01T17:56:37;19.50;99.90
12746;DHT22;6437;53.686;10.030;2022-08-01T17:59:38;19.40;99.90
12746;DHT22;6437;53.686;10.030;2022-08-01T18:02:40;19.40;99.90
12746;DHT22;6437;53.686;10.030;2022-08-01T18:05:43;19.20;99.90
12746;DHT22;6437;53.686;10.030;2022-08-01T18:08:45;19.20;99.90
12746;DHT22;6437;53.686;10.030;2022-08-01T18:11:47;19.20;99.90
12746;DHT22;6437;53.686;10.030;2022-08-01T18:14:48;19.10;99.90
12746;DHT22;6437;53.686;10.030;2022-08-01T18:17:50;19.10;99.90
12746;DHT22;6437;53.686;10.030;2022-08-01T18:20:53;19.10;99.90
12746;DHT22;6437;53.686;10.030;2022-08-01T18:23:54;19.00;99.90
12746;DHT22;6437;53.686;10.030;2022-08-01T18:26:56;18.90;99.90
12746;DHT22;6437;53.686;10.030;2022-08-01T18:29:58;18.90;99.90
12746;DHT22;6437;53.686;10.030;2022-08-01T18:33:00;18.90;99.90
12746;DHT22;6437;53.686;10.030;2022-08-01T18:36:03;18.80;99.90
12746;DHT22;6437;53.686;10.030;2022-08-01T18:39:05;18.70;99.90
12746;DHT22;6437;53.686;10.030;2022-08-01T18:42:07;18.60;99.90
12746;DHT22;6437;53.686;10.030;2022-08-01T18:45:09;18.60;99.90
12746;DHT22;6437;53.686;10.030;2022-08-01T18:48:11;18.50;99.90
12746;DHT22;6437;53.686;10.030;2022-08-01T18:51:14;18.50;99.90
12746;DHT22;6437;53.686;10.030;2022-08-01T18:54:16;18.40;99.90
12746;DHT22;6437;53.686;10.030;2022-08-01T18:57:18;18.40;99.90
12746;DHT22;6437;53.686;10.030;2022-08-01T19:00:20;18.40;99.90
12746;DHT22;6437;53.686;10.030;2022-08-01T19:03:21;18.40;99.90
12746;DHT22;6437;53.686;10.030;2022-08-01T19:06:24;18.40;99.90
12746;DHT22;6437;53.686;10.030;2022-08-01T19:09:26;18.40;99.90
12746;DHT22;6437;53.686;10.030;2022-08-01T19:12:28;18.40;99.90
12746;DHT22;6437;53.686;10.030;2022-08-01T19:15:30;18.30;99.90
12746;DHT22;6437;53.686;10.030;2022-08-01T19:18:31;18.30;99.90
12746;DHT22;6437;53.686;10.030;2022-08-01T19:21:34;18.20;99.90
12746;DHT22;6437;53.686;10.030;2022-08-01T19:24:36;18.20;99.90
12746;DHT22;6437;53.686;10.030;2022-08-01T19:27:40;18.10;99.90
12746;DHT22;6437;53.686;10.030;2022-08-01T19:30:43;18.00;99.90